Terminal Aerodrome Forecast
Issued by NWS Albuquerque, NM

Home | Current Version | Previous Version | Text Only | Print | Product List | Glossary On
Versions: 1 2 3 4 5 6 7 8 9 10 11 12 13 14 15
000
FTUS45 KABQ 220500 RRA
TAFABQ
TAF
KABQ 220544Z 2206/2306 09011KT P6SM FEW050 BKN100
     FM221100 09009KT P6SM BKN050
     FM221700 16008KT P6SM BKN050
      TEMPO 2221/2301 -TSRA OVC035CB
     FM230100 13008KT P6SM VCSH BKN060=

USA.gov is the U.S. government's official web portal to all federal, state and local government web resources and services.